Time;durP1;ratioP1;P1;durP2;ratioP2;P2;SDS_P1;SDS_P2;PMS_P1;PMS_P2;Temp;Humidity;BMP_temperature;BMP_pressure;BME280_temperature;BME280_humidity;BME280_pressure;Samples;Min_cycle;Max_cycle;Signal;HPM_P1;HPM_P2
2021/08/06 00:00:27;;;;;;;17.50;14.75;;;16.40;99.90;;;;;;2048036;28;20058;-70
2021/08/06 00:01:28;;;;;;;17.15;14.75;;;16.40;99.90;;;;;;2047900;29;20102;-69
2021/08/06 00:02:30;;;;;;;15.98;14.27;;;16.40;99.90;;;;;;2048672;29;20031;-69
2021/08/06 00:03:31;;;;;;;16.30;14.60;;;16.40;99.90;;;;;;2049290;28;20058;-70
2021/08/06 00:04:31;;;;;;;15.50;13.82;;;16.40;99.90;;;;;;2049297;28;20031;-70
2021/08/06 00:05:32;;;;;;;16.38;13.90;;;16.40;99.90;;;;;;2049226;28;20027;-70
2021/08/06 00:06:33;;;;;;;15.77;13.93;;;16.40;99.90;;;;;;2048564;29;20758;-70
2021/08/06 00:07:33;;;;;;;15.60;13.27;;;16.40;99.90;;;;;;2048548;29;20094;-70
2021/08/06 00:08:35;;;;;;;15.77;14.07;;;16.40;99.90;;;;;;2048676;29;20039;-69
2021/08/06 00:09:37;;;;;;;15.30;13.70;;;16.40;99.90;;;;;;2048712;29;20043;-70
2021/08/06 00:10:37;;;;;;;16.48;14.10;;;16.40;99.90;;;;;;2048478;28;20032;-69
2021/08/06 00:11:38;;;;;;;16.95;15.05;;;16.40;99.90;;;;;;2048928;28;20745;-70
2021/08/06 00:12:39;;;;;;;17.15;14.68;;;16.40;99.90;;;;;;2049261;28;20082;-70
2021/08/06 00:13:39;;;;;;;16.35;14.57;;;16.40;99.90;;;;;;2049220;28;20101;-70
2021/08/06 00:14:40;;;;;;;17.23;14.80;;;16.40;99.90;;;;;;2049131;28;20154;-70
2021/08/06 00:15:41;;;;;;;16.17;14.30;;;16.40;99.90;;;;;;2049148;28;20035;-71
2021/08/06 00:16:41;;;;;;;15.73;14.02;;;16.40;99.90;;;;;;2049193;28;20082;-70
2021/08/06 00:17:42;;;;;;;17.95;14.63;;;16.40;99.90;;;;;;2049232;28;20027;-70
2021/08/06 00:18:43;;;;;;;18.77;16.00;;;16.40;99.90;;;;;;2049181;28;20035;-70
2021/08/06 00:19:44;;;;;;;17.67;15.70;;;16.40;99.90;;;;;;2048422;28;20482;-70
2021/08/06 00:20:44;;;;;;;19.63;16.30;;;16.40;99.90;;;;;;2047734;29;20031;-70
2021/08/06 00:21:45;;;;;;;18.83;16.83;;;16.40;99.90;;;;;;2048593;29;20101;-70
2021/08/06 00:22:46;;;;;;;18.00;15.43;;;16.40;99.90;;;;;;2049198;28;20034;-70
2021/08/06 00:23:47;;;;;;;19.77;17.30;;;16.40;99.90;;;;;;2049153;28;20078;-69
2021/08/06 00:24:47;;;;;;;20.38;16.17;;;16.40;99.90;;;;;;2048995;28;20035;-70
2021/08/06 00:25:48;;;;;;;19.55;16.50;;;16.40;99.90;;;;;;2049159;28;20204;-70
2021/08/06 00:26:48;;;;;;;17.90;15.90;;;16.40;99.90;;;;;;2049107;29;20574;-69
2021/08/06 00:27:49;;;;;;;17.50;15.50;;;16.40;99.90;;;;;;2048477;29;20059;-71
2021/08/06 00:28:50;;;;;;;17.02;15.23;;;16.40;99.90;;;;;;2040512;29;20039;-70
2021/08/06 00:29:50;;;;;;;16.48;14.77;;;16.40;99.90;;;;;;2040607;28;20028;-70
2021/08/06 00:30:51;;;;;;;17.85;14.80;;;16.40;99.90;;;;;;2039812;29;20529;-69
2021/08/06 00:31:52;;;;;;;17.25;15.25;;;16.40;99.90;;;;;;2040597;29;20415;-69
2021/08/06 00:32:53;;;;;;;17.08;15.27;;;16.40;99.90;;;;;;2048576;28;20034;-70
2021/08/06 00:33:59;;;;;;;16.33;14.63;;;16.40;99.90;;;;;;2056520;28;20054;-70
2021/08/06 00:35:02;;;;;;;17.92;14.95;;;16.40;99.90;;;;;;2048502;29;20062;-70
2021/08/06 00:36:04;;;;;;;18.60;16.02;;;16.40;99.90;;;;;;2040923;29;20038;-70
2021/08/06 00:37:06;;;;;;;18.48;16.35;;;16.50;99.90;;;;;;2048385;28;20023;-70
2021/08/06 00:38:12;;;;;;;21.75;16.25;;;16.50;99.90;;;;;;2048399;29;20062;-70
2021/08/06 00:39:15;;;;;;;18.83;16.65;;;16.40;99.90;;;;;;2040414;29;20055;-70
2021/08/06 00:40:15;;;;;;;16.85;15.07;;;16.50;99.90;;;;;;2048277;29;20162;-69
2021/08/06 00:41:18;;;;;;;16.77;15.07;;;16.40;99.90;;;;;;2047473;29;20034;-68
2021/08/06 00:42:19;;;;;;;16.88;15.07;;;16.50;99.90;;;;;;2048360;29;20094;-69
2021/08/06 00:43:20;;;;;;;16.27;14.57;;;16.50;99.90;;;;;;2048201;29;20023;-69
2021/08/06 00:44:21;;;;;;;17.35;14.73;;;16.50;99.90;;;;;;2048401;29;20054;-70
2021/08/06 00:45:24;;;;;;;16.63;14.35;;;16.40;99.90;;;;;;2048324;28;20032;-69
2021/08/06 00:46:27;;;;;;;17.95;15.13;;;16.50;99.90;;;;;;2048759;28;20393;-70
2021/08/06 00:47:29;;;;;;;17.50;15.30;;;16.50;99.90;;;;;;2048424;29;20034;-70
2021/08/06 00:48:33;;;;;;;16.83;14.77;;;16.50;99.90;;;;;;2040773;29;20027;-70
2021/08/06 00:49:35;;;;;;;16.83;14.93;;;16.50;99.90;;;;;;2048403;28;20039;-70
2021/08/06 00:50:36;;;;;;;16.60;14.73;;;16.50;99.90;;;;;;2047634;29;20024;-69
2021/08/06 00:51:39;;;;;;;20.25;15.05;;;16.50;99.90;;;;;;2048228;29;20023;-70
2021/08/06 00:52:42;;;;;;;17.27;14.50;;;16.50;99.90;;;;;;2048292;28;20079;-70
2021/08/06 00:53:43;;;;;;;17.38;14.38;;;16.50;99.90;;;;;;2048510;28;20023;-70
2021/08/06 00:54:44;;;;;;;15.63;13.88;;;16.50;99.90;;;;;;2056341;28;20046;-70
2021/08/06 00:55:50;;;;;;;17.40;12.90;;;16.50;99.90;;;;;;2048191;29;20035;-70
2021/08/06 00:56:56;;;;;;;14.73;13.13;;;16.50;99.90;;;;;;2041039;29;20035;-70
2021/08/06 00:57:57;;;;;;;15.00;13.27;;;16.50;99.90;;;;;;2040300;29;20055;-71
2021/08/06 00:58:59;;;;;;;14.70;13.10;;;16.50;99.90;;;;;;2040587;29;20058;-70
2021/08/06 01:00:01;;;;;;;14.85;13.25;;;16.50;99.90;;;;;;2040298;29;20054;-71
2021/08/06 01:01:02;;;;;;;14.77;12.57;;;16.40;99.90;;;;;;2039331;29;20075;-71
2021/08/06 01:02:38;;;;;;;14.05;12.65;;;16.40;99.90;;;;;;2041174;29;20024;-70
2021/08/06 01:03:58;;;;;;;12.32;11.05;;;16.40;99.90;;;;;;2052490;28;20721;-71
2021/08/06 01:05:10;;;;;;;12.68;10.77;;;16.40;99.90;;;;;;2048156;28;20028;-71
2021/08/06 01:06:21;;;;;;;13.25;11.65;;;16.30;99.90;;;;;;2049910;28;20510;-72
2021/08/06 01:07:45;;;;;;;13.15;11.52;;;16.30;99.90;;;;;;2048124;29;20031;-71
2021/08/06 01:08:54;;;;;;;12.63;11.32;;;16.30;99.90;;;;;;2043065;29;20035;-72
2021/08/06 01:10:03;;;;;;;12.32;10.57;;;16.20;99.90;;;;;;2049150;28;20023;-72
2021/08/06 01:11:15;;;;;;;13.23;10.90;;;16.20;99.90;;;;;;2047098;29;20023;-71
2021/08/06 01:12:22;;;;;;;12.35;11.05;;;16.20;99.90;;;;;;2040388;29;20434;-71
2021/08/06 01:13:30;;;;;;;12.02;10.68;;;16.20;99.90;;;;;;2048218;29;20035;-72
2021/08/06 01:14:37;;;;;;;13.10;11.63;;;16.20;99.90;;;;;;2048130;28;20035;-71
2021/08/06 01:15:41;;;;;;;13.70;12.00;;;16.20;99.90;;;;;;2049062;28;20035;-72
2021/08/06 01:16:45;;;;;;;12.98;11.57;;;16.20;99.90;;;;;;2055995;28;20023;-71
2021/08/06 01:18:01;;;;;;;14.68;11.35;;;16.20;99.90;;;;;;2048124;29;20031;-71
2021/08/06 01:19:06;;;;;;;12.80;11.50;;;16.20;99.90;;;;;;2040544;29;20028;-71
2021/08/06 01:20:25;;;;;;;13.18;11.13;;;16.20;99.90;;;;;;2048555;28;20043;-71
2021/08/06 01:21:31;;;;;;;13.93;11.98;;;16.20;99.90;;;;;;2047891;29;20078;-70
2021/08/06 01:22:50;;;;;;;15.05;11.80;;;16.20;99.90;;;;;;2048435;28;20031;-71
2021/08/06 01:24:06;;;;;;;13.02;11.63;;;16.20;99.90;;;;;;2048036;29;20179;-71
2021/08/06 01:25:29;;;;;;;13.05;11.40;;;16.20;99.90;;;;;;2040844;29;20157;-72
2021/08/06 01:26:30;;;;;;;15.90;12.63;;;16.20;99.90;;;;;;2050935;28;20054;-71
2021/08/06 01:27:35;;;;;;;13.68;11.98;;;16.20;99.90;;;;;;2047979;29;20087;-71
2021/08/06 01:28:39;;;;;;;14.98;12.75;;;16.20;99.90;;;;;;2040279;29;20036;-71
2021/08/06 01:29:40;;;;;;;14.35;12.30;;;16.20;99.90;;;;;;2048580;28;20585;-71
2021/08/06 01:30:43;;;;;;;16.08;13.90;;;16.20;99.90;;;;;;2047169;29;20027;-71
2021/08/06 01:31:44;;;;;;;14.63;13.00;;;16.20;99.90;;;;;;2048315;29;20471;-71
2021/08/06 01:32:54;;;;;;;14.43;12.60;;;16.20;99.90;;;;;;2048125;29;20031;-71
2021/08/06 01:33:55;;;;;;;14.60;12.35;;;16.20;99.90;;;;;;2040726;29;20538;-71
2021/08/06 01:35:00;;;;;;;15.32;13.27;;;16.20;99.90;;;;;;2048738;28;20023;-71
2021/08/06 01:36:01;;;;;;;14.95;13.35;;;16.20;99.90;;;;;;2055586;28;20058;-71
2021/08/06 01:37:04;;;;;;;15.43;12.75;;;16.20;99.90;;;;;;2048076;29;20467;-71
2021/08/06 01:38:13;;;;;;;15.10;12.75;;;16.20;99.90;;;;;;2041478;29;20107;-71
2021/08/06 01:39:16;;;;;;;14.70;13.13;;;16.20;99.90;;;;;;2048286;28;20023;-71
2021/08/06 01:40:20;;;;;;;14.43;12.80;;;16.20;99.90;;;;;;2055931;28;20070;-72
2021/08/06 01:41:36;;;;;;;14.75;13.13;;;16.20;99.90;;;;;;2047900;29;20031;-71
2021/08/06 01:42:56;;;;;;;15.68;13.98;;;16.20;99.90;;;;;;2048509;28;20027;-71
2021/08/06 01:44:32;;;;;;;16.33;13.77;;;16.20;99.90;;;;;;2053756;28;20027;-72
2021/08/06 01:45:40;;;;;;;16.17;13.93;;;16.10;99.90;;;;;;2048040;29;20110;-71
2021/08/06 01:46:47;;;;;;;14.65;12.98;;;16.10;99.90;;;;;;2048498;28;20032;-71
2021/08/06 01:47:51;;;;;;;17.75;14.77;;;16.10;99.90;;;;;;2047948;29;20031;-72
2021/08/06 01:49:31;;;;;;;16.13;14.43;;;16.10;99.90;;;;;;2041573;29;20042;-72
2021/08/06 01:50:36;;;;;;;16.58;14.50;;;16.00;99.90;;;;;;2051281;28;20504;-72
2021/08/06 01:51:48;;;;;;;16.85;13.45;;;16.00;99.90;;;;;;2047841;29;20082;-71
2021/08/06 01:52:49;;;;;;;14.90;13.20;;;16.00;99.90;;;;;;2040580;29;20036;-71
2021/08/06 01:53:53;;;;;;;16.92;13.77;;;15.90;99.90;;;;;;2047821;28;20037;-72
2021/08/06 01:54:55;;;;;;;18.35;14.98;;;16.00;99.90;;;;;;2047851;29;20089;-71
2021/08/06 01:56:06;;;;;;;16.83;14.60;;;15.90;99.90;;;;;;2040841;29;20090;-71
2021/08/06 01:57:18;;;;;;;14.65;13.10;;;16.00;99.90;;;;;;2044414;28;20032;-71
2021/08/06 01:58:23;;;;;;;17.52;13.57;;;15.90;99.90;;;;;;2054298;28;20030;-71
2021/08/06 01:59:30;;;;;;;16.95;14.05;;;15.90;99.90;;;;;;2048549;28;20526;-71
2021/08/06 02:00:34;;;;;;;15.15;13.00;;;15.90;99.90;;;;;;2055031;28;20129;-71
2021/08/06 02:01:41;;;;;;;13.95;12.40;;;15.90;99.90;;;;;;2055511;28;20043;-71
2021/08/06 02:02:50;;;;;;;14.20;12.68;;;15.90;99.90;;;;;;2055960;28;20034;-72
2021/08/06 02:03:57;;;;;;;14.30;12.55;;;15.90;99.90;;;;;;2055024;28;20062;-70
2021/08/06 02:05:03;;;;;;;15.52;12.48;;;15.90;99.90;;;;;;2055733;28;20505;-70
2021/08/06 02:06:05;;;;;;;13.52;12.07;;;15.90;99.90;;;;;;2055725;28;20030;-71
2021/08/06 02:07:15;;;;;;;14.40;12.15;;;15.80;99.90;;;;;;2048548;28;20027;-70
2021/08/06 02:08:17;;;;;;;14.85;12.82;;;15.80;99.90;;;;;;2048280;28;20494;-71
2021/08/06 02:09:22;;;;;;;15.85;12.68;;;15.80;99.90;;;;;;2048182;28;20118;-71
2021/08/06 02:10:24;;;;;;;13.35;11.90;;;15.80;99.90;;;;;;2055634;28;20069;-72
2021/08/06 02:11:25;;;;;;;13.68;12.25;;;15.70;99.90;;;;;;2055041;28;20437;-71
2021/08/06 02:12:26;;;;;;;13.90;11.52;;;15.70;99.90;;;;;;2055646;28;20637;-71
2021/08/06 02:13:39;;;;;;;12.27;11.07;;;15.70;99.90;;;;;;2055647;28;20034;-71
2021/08/06 02:14:42;;;;;;;11.73;10.32;;;15.70;99.90;;;;;;2055684;28;20031;-71
2021/08/06 02:15:47;;;;;;;11.48;10.27;;;15.70;99.90;;;;;;2055689;28;20035;-70
2021/08/06 02:16:51;;;;;;;12.85;10.30;;;15.70;99.90;;;;;;2056263;28;20042;-71
2021/08/06 02:17:54;;;;;;;11.35;10.20;;;15.70;99.90;;;;;;2055135;28;20401;-71
2021/08/06 02:19:15;;;;;;;12.23;10.93;;;15.70;99.90;;;;;;2053132;28;20031;-71
2021/08/06 02:20:16;;;;;;;12.85;10.00;;;15.70;99.90;;;;;;2063531;28;20041;-71
2021/08/06 02:21:30;;;;;;;12.32;10.45;;;15.70;99.90;;;;;;2062444;28;20102;-71
2021/08/06 02:22:33;;;;;;;11.20;9.80;;;15.70;99.90;;;;;;2055508;28;20035;-70
2021/08/06 02:23:35;;;;;;;12.52;10.82;;;15.70;99.90;;;;;;2055375;28;20106;-71
2021/08/06 02:24:39;;;;;;;12.20;10.90;;;15.70;99.90;;;;;;2055103;28;20363;-71
2021/08/06 02:25:45;;;;;;;12.23;10.00;;;15.70;99.90;;;;;;2056249;28;20035;-71
2021/08/06 02:26:47;;;;;;;11.02;9.82;;;15.70;99.90;;;;;;2055219;28;20034;-71
2021/08/06 02:27:51;;;;;;;10.82;9.05;;;15.70;99.90;;;;;;2039995;29;20031;-71
2021/08/06 02:28:55;;;;;;;10.85;9.77;;;15.70;99.90;;;;;;2040968;28;20023;-71
2021/08/06 02:30:02;;;;;;;12.50;10.05;;;15.70;99.90;;;;;;2056281;28;20030;-71
2021/08/06 02:31:06;;;;;;;10.20;9.30;;;15.70;99.90;;;;;;2054879;28;20068;-71
2021/08/06 02:32:07;;;;;;;10.95;9.45;;;15.70;99.90;;;;;;2055425;28;20094;-71
2021/08/06 02:33:08;;;;;;;10.10;8.75;;;15.70;99.90;;;;;;2055615;28;20490;-71
2021/08/06 02:34:11;;;;;;;10.25;9.18;;;15.60;99.90;;;;;;2055655;28;20027;-71
2021/08/06 02:35:12;;;;;;;9.75;8.65;;;15.60;99.90;;;;;;2055692;28;20019;-71
2021/08/06 02:36:14;;;;;;;9.93;8.93;;;15.60;99.90;;;;;;2055855;28;20034;-71
2021/08/06 02:37:14;;;;;;;10.05;8.95;;;15.60;99.90;;;;;;2055617;28;20070;-71
2021/08/06 02:38:21;;;;;;;9.98;8.98;;;15.60;99.90;;;;;;2055532;28;20372;-72
2021/08/06 02:39:31;;;;;;;9.82;8.85;;;15.60;99.90;;;;;;2062891;28;20802;-71
2021/08/06 02:40:32;;;;;;;9.60;8.70;;;15.60;99.90;;;;;;2055364;28;20599;-71
2021/08/06 02:41:33;;;;;;;10.38;9.30;;;15.60;99.90;;;;;;2056095;28;20058;-72
2021/08/06 02:42:34;;;;;;;10.32;9.27;;;15.60;99.90;;;;;;2055205;28;20033;-71
2021/08/06 02:43:38;;;;;;;10.38;9.27;;;15.60;99.90;;;;;;2055329;28;20088;-71
2021/08/06 02:44:39;;;;;;;10.45;8.95;;;15.60;99.90;;;;;;2055680;28;20126;-72
2021/08/06 02:45:40;;;;;;;10.88;9.23;;;15.60;99.90;;;;;;2055599;28;20031;-71
2021/08/06 02:46:41;;;;;;;11.43;9.70;;;15.60;99.90;;;;;;2055620;28;20030;-71
2021/08/06 02:47:43;;;;;;;10.48;9.30;;;15.60;99.90;;;;;;2063551;28;20109;-71
2021/08/06 02:48:44;;;;;;;9.80;8.88;;;15.60;99.90;;;;;;2055564;28;20665;-71
2021/08/06 02:49:45;;;;;;;10.00;8.68;;;15.60;99.90;;;;;;2055417;28;20038;-70
2021/08/06 02:50:48;;;;;;;9.07;8.18;;;15.60;99.90;;;;;;2054603;28;20037;-71
2021/08/06 02:51:50;;;;;;;9.80;8.88;;;15.60;99.90;;;;;;2055540;28;20031;-71
2021/08/06 02:52:51;;;;;;;10.80;8.88;;;15.60;99.90;;;;;;2055405;28;20035;-71
2021/08/06 02:53:53;;;;;;;9.20;8.20;;;15.50;99.90;;;;;;2055582;28;20081;-71
2021/08/06 02:54:54;;;;;;;9.40;8.50;;;15.60;99.90;;;;;;2055407;28;20085;-71
2021/08/06 02:55:55;;;;;;;9.52;8.60;;;15.60;99.90;;;;;;2055447;28;20026;-70
2021/08/06 02:56:55;;;;;;;8.95;8.13;;;15.60;99.90;;;;;;2063291;28;20413;-71
2021/08/06 02:57:57;;;;;;;9.20;8.30;;;15.50;99.90;;;;;;2047742;28;20023;-72
2021/08/06 02:58:58;;;;;;;9.88;8.95;;;15.60;99.90;;;;;;2055617;28;20023;-72
2021/08/06 03:00:00;;;;;;;8.80;7.93;;;15.60;99.90;;;;;;2055383;28;20126;-71
2021/08/06 03:01:01;;;;;;;8.80;7.90;;;15.60;99.90;;;;;;2054689;28;20529;-72
2021/08/06 03:02:02;;;;;;;9.20;8.30;;;15.60;99.90;;;;;;2055536;28;20034;-72
2021/08/06 03:03:03;;;;;;;9.70;8.63;;;15.60;99.90;;;;;;2055464;28;20691;-72
2021/08/06 03:04:05;;;;;;;9.88;8.88;;;15.60;99.90;;;;;;2055403;28;20023;-71
2021/08/06 03:05:07;;;;;;;9.23;8.43;;;15.60;99.90;;;;;;2055446;28;20582;-71
2021/08/06 03:06:08;;;;;;;10.73;8.77;;;15.60;99.90;;;;;;2055563;28;20026;-71
2021/08/06 03:07:08;;;;;;;8.82;8.02;;;15.60;99.90;;;;;;2047446;28;20102;-71
2021/08/06 03:08:10;;;;;;;9.05;8.15;;;15.50;99.90;;;;;;2055284;28;20057;-70
2021/08/06 03:09:11;;;;;;;11.65;8.60;;;15.50;99.90;;;;;;2055312;28;20022;-70
2021/08/06 03:10:11;;;;;;;9.82;8.77;;;15.50;99.90;;;;;;2055492;28;20034;-70
2021/08/06 03:11:12;;;;;;;9.25;8.45;;;15.60;99.90;;;;;;2054662;28;20038;-70
2021/08/06 03:12:13;;;;;;;9.65;8.27;;;15.50;99.90;;;;;;2055416;28;20022;-71
2021/08/06 03:13:14;;;;;;;9.43;8.52;;;15.50;99.90;;;;;;2055475;28;20073;-70
2021/08/06 03:14:15;;;;;;;8.88;8.07;;;15.50;99.90;;;;;;2056108;28;20034;-70
2021/08/06 03:15:18;;;;;;;9.13;8.10;;;15.50;99.90;;;;;;2055571;28;20587;-70
2021/08/06 03:16:19;;;;;;;11.70;8.18;;;15.50;99.90;;;;;;2055717;28;20509;-70
2021/08/06 03:17:22;;;;;;;9.32;8.43;;;15.50;99.90;;;;;;2055514;28;20130;-70
2021/08/06 03:18:25;;;;;;;10.45;8.25;;;15.50;99.90;;;;;;2055642;28;20026;-70
2021/08/06 03:19:28;;;;;;;9.27;8.18;;;15.50;99.90;;;;;;2063290;28;20464;-70
2021/08/06 03:20:30;;;;;;;9.38;8.48;;;15.50;99.90;;;;;;2054345;28;20034;-70
2021/08/06 03:21:36;;;;;;;9.02;8.13;;;15.50;99.90;;;;;;2055971;28;20053;-70
2021/08/06 03:22:39;;;;;;;10.23;8.50;;;15.50;99.90;;;;;;2063439;28;20029;-70
2021/08/06 03:23:41;;;;;;;9.90;8.45;;;15.50;99.90;;;;;;2055464;28;20031;-70
2021/08/06 03:24:44;;;;;;;9.50;8.48;;;15.50;99.90;;;;;;2055663;28;20027;-71
2021/08/06 03:25:45;;;;;;;9.10;8.20;;;15.50;99.90;;;;;;2055024;28;20090;-70
2021/08/06 03:26:46;;;;;;;9.15;8.20;;;15.50;99.90;;;;;;2047355;28;20035;-71
2021/08/06 03:27:47;;;;;;;9.25;8.32;;;15.50;99.90;;;;;;2047492;28;20054;-70
2021/08/06 03:28:48;;;;;;;9.90;8.57;;;15.50;99.90;;;;;;2047464;28;20110;-70
2021/08/06 03:29:49;;;;;;;9.30;8.25;;;15.50;99.90;;;;;;2047385;28;20015;-71
2021/08/06 03:30:51;;;;;;;9.45;8.55;;;15.50;99.90;;;;;;2054719;28;20069;-71
2021/08/06 03:31:52;;;;;;;8.93;8.02;;;15.50;99.90;;;;;;2055366;28;20039;-70
2021/08/06 03:32:52;;;;;;;9.15;8.20;;;15.50;99.90;;;;;;2055037;28;20031;-71
2021/08/06 03:33:53;;;;;;;9.50;8.35;;;15.50;99.90;;;;;;2055423;28;20054;-72
2021/08/06 03:34:57;;;;;;;9.73;8.48;;;15.50;99.90;;;;;;2055345;28;20724;-72
2021/08/06 03:35:58;;;;;;;9.80;8.80;;;15.50;99.90;;;;;;2055951;28;20105;-72
2021/08/06 03:36:58;;;;;;;10.43;9.43;;;15.50;99.90;;;;;;2056771;28;20613;-71
2021/08/06 03:38:00;;;;;;;9.65;8.68;;;15.50;99.90;;;;;;2056877;28;20019;-71
2021/08/06 03:39:01;;;;;;;9.27;8.35;;;15.50;99.90;;;;;;2056987;28;20450;-71
2021/08/06 03:40:02;;;;;;;10.32;9.32;;;15.50;99.90;;;;;;2056707;28;20035;-71
2021/08/06 03:41:04;;;;;;;9.75;8.85;;;15.50;99.90;;;;;;2055919;28;20086;-71
2021/08/06 03:42:07;;;;;;;10.82;9.10;;;15.50;99.90;;;;;;2056992;28;20019;-71
2021/08/06 03:43:08;;;;;;;11.02;9.07;;;15.50;99.90;;;;;;2056738;28;20577;-71
2021/08/06 03:44:09;;;;;;;10.10;9.05;;;15.50;99.90;;;;;;2048954;28;20030;-72
2021/08/06 03:45:10;;;;;;;12.10;8.93;;;15.50;99.90;;;;;;2064829;28;20508;-71
2021/08/06 03:46:11;;;;;;;9.45;8.55;;;15.50;99.90;;;;;;2056797;28;20023;-71
2021/08/06 03:47:12;;;;;;;10.02;9.02;;;15.50;99.90;;;;;;2040853;29;20163;-71
2021/08/06 03:48:12;;;;;;;10.10;9.20;;;15.50;99.90;;;;;;2048711;29;20118;-71
2021/08/06 03:49:13;;;;;;;11.25;9.30;;;15.50;99.90;;;;;;2056683;28;20557;-71
2021/08/06 03:50:14;;;;;;;10.70;9.10;;;15.50;99.90;;;;;;2040651;28;20114;-71
2021/08/06 03:51:15;;;;;;;11.48;10.00;;;15.50;99.90;;;;;;2040131;28;20034;-71
2021/08/06 03:52:16;;;;;;;11.80;9.63;;;15.50;99.90;;;;;;2056896;28;20508;-71
2021/08/06 03:53:16;;;;;;;12.30;10.45;;;15.50;99.90;;;;;;2064712;28;20436;-72
2021/08/06 03:54:18;;;;;;;13.65;10.50;;;15.50;99.90;;;;;;2048770;28;20035;-72
2021/08/06 03:55:19;;;;;;;14.73;10.10;;;15.50;99.90;;;;;;2040768;29;20039;-72
2021/08/06 03:56:19;;;;;;;12.68;10.07;;;15.50;99.90;;;;;;2048635;28;20029;-72
2021/08/06 03:57:22;;;;;;;11.07;9.98;;;15.50;99.90;;;;;;2056932;28;20398;-72
2021/08/06 03:58:24;;;;;;;10.18;8.85;;;15.50;99.90;;;;;;2056599;28;20035;-72
2021/08/06 03:59:27;;;;;;;11.80;9.60;;;15.50;99.90;;;;;;2048895;28;20368;-71
2021/08/06 04:00:34;;;;;;;10.55;9.45;;;15.40;99.90;;;;;;2047804;28;20127;-72
2021/08/06 04:01:35;;;;;;;10.25;9.23;;;15.50;99.90;;;;;;2056916;28;20636;-72
2021/08/06 04:02:36;;;;;;;10.85;8.90;;;15.50;99.90;;;;;;2064617;28;20030;-72
2021/08/06 04:03:36;;;;;;;9.43;8.52;;;15.40;99.90;;;;;;2056569;28;20030;-71
2021/08/06 04:04:42;;;;;;;10.00;9.00;;;15.40;99.90;;;;;;2057097;28;20042;-71
2021/08/06 04:05:43;;;;;;;9.55;8.20;;;15.50;99.90;;;;;;2056564;28;20474;-71
2021/08/06 04:06:46;;;;;;;9.50;8.60;;;15.40;99.90;;;;;;2056985;28;20031;-71
2021/08/06 04:07:48;;;;;;;9.23;8.20;;;15.40;99.90;;;;;;2056725;28;20141;-71
2021/08/06 04:08:52;;;;;;;9.00;8.20;;;15.40;99.90;;;;;;2049056;28;20560;-71
2021/08/06 04:09:54;;;;;;;9.40;8.40;;;15.40;99.90;;;;;;2048949;28;20031;-72
2021/08/06 04:10:56;;;;;;;11.52;9.25;;;15.40;99.90;;;;;;2055890;28;20054;-71
2021/08/06 04:11:57;;;;;;;9.70;8.80;;;15.40;99.90;;;;;;2056604;28;20055;-72
2021/08/06 04:12:58;;;;;;;10.07;9.18;;;15.40;99.90;;;;;;2048393;28;20024;-72
2021/08/06 04:13:59;;;;;;;9.98;8.98;;;15.40;99.90;;;;;;2056716;28;20046;-71
2021/08/06 04:15:00;;;;;;;9.95;8.88;;;15.40;99.90;;;;;;2064568;28;20026;-72
2021/08/06 04:16:00;;;;;;;9.73;8.73;;;15.40;99.90;;;;;;2048439;28;20046;-72
2021/08/06 04:17:01;;;;;;;8.90;8.10;;;15.40;99.90;;;;;;2048452;28;20031;-72
2021/08/06 04:18:02;;;;;;;9.85;8.13;;;15.50;99.90;;;;;;2056485;28;20031;-70
2021/08/06 04:19:02;;;;;;;9.75;8.85;;;15.50;99.90;;;;;;2064555;28;20077;-70
2021/08/06 04:20:04;;;;;;;9.88;8.98;;;15.50;99.90;;;;;;2064451;28;20446;-71
2021/08/06 04:21:05;;;;;;;9.27;8.48;;;15.50;99.90;;;;;;2063578;28;20022;-70
2021/08/06 04:22:05;;;;;;;9.13;8.23;;;15.50;99.90;;;;;;2064584;28;20142;-72
2021/08/06 04:23:06;;;;;;;9.40;8.40;;;15.60;99.90;;;;;;2056648;28;20058;-72
2021/08/06 04:24:07;;;;;;;9.30;8.40;;;15.60;99.90;;;;;;2056617;28;20047;-71
2021/08/06 04:25:09;;;;;;;9.05;8.25;;;15.60;99.90;;;;;;2056480;28;20030;-70
2021/08/06 04:26:10;;;;;;;9.32;8.43;;;15.60;99.90;;;;;;2048828;28;20035;-70
2021/08/06 04:27:10;;;;;;;9.52;8.63;;;15.70;99.90;;;;;;2049372;28;20027;-70
2021/08/06 04:28:11;;;;;;;9.45;8.52;;;15.70;99.90;;;;;;2048655;28;20043;-71
2021/08/06 04:29:12;;;;;;;9.80;8.80;;;15.70;99.90;;;;;;2056545;28;20469;-71
2021/08/06 04:30:13;;;;;;;10.50;9.40;;;15.70;99.90;;;;;;2064568;28;20022;-71
2021/08/06 04:31:14;;;;;;;12.40;10.18;;;15.90;99.90;;;;;;2055761;28;20182;-71
2021/08/06 04:32:15;;;;;;;10.13;9.10;;;16.00;99.90;;;;;;2048593;29;20035;-72
2021/08/06 04:33:15;;;;;;;9.70;8.70;;;16.20;99.90;;;;;;2056505;28;20421;-71
2021/08/06 04:34:16;;;;;;;10.23;8.05;;;16.50;99.90;;;;;;2056642;28;20046;-71
2021/08/06 04:35:18;;;;;;;9.40;7.47;;;16.90;99.90;;;;;;2056759;28;20520;-70
2021/08/06 04:36:19;;;;;;;9.30;7.15;;;17.10;99.90;;;;;;2056741;28;20131;-71
2021/08/06 04:37:19;;;;;;;8.15;7.30;;;17.40;99.90;;;;;;2057855;28;20027;-71
2021/08/06 04:38:20;;;;;;;7.90;7.10;;;17.70;99.90;;;;;;2057297;28;20035;-70
2021/08/06 04:39:21;;;;;;;7.60;6.63;;;17.90;99.90;;;;;;2048418;28;20047;-70
2021/08/06 04:40:21;;;;;;;9.18;7.28;;;18.20;99.90;;;;;;2048156;28;20031;-71
2021/08/06 04:41:22;;;;;;;7.30;6.57;;;18.30;99.90;;;;;;2047652;28;20028;-71
2021/08/06 04:42:23;;;;;;;7.13;6.45;;;18.50;99.90;;;;;;2048450;28;20023;-71
2021/08/06 04:43:23;;;;;;;7.68;6.05;;;18.80;99.90;;;;;;2048189;28;20035;-71
2021/08/06 04:44:24;;;;;;;7.00;6.30;;;19.00;99.90;;;;;;2056301;28;20031;-71
2021/08/06 04:45:25;;;;;;;6.38;5.78;;;19.20;99.90;;;;;;2056308;28;20082;-71
2021/08/06 04:46:27;;;;;;;6.60;6.00;;;19.40;99.90;;;;;;2056346;28;20023;-71
2021/08/06 04:47:28;;;;;;;6.35;5.75;;;19.50;99.90;;;;;;2055581;28;20030;-69
2021/08/06 04:48:29;;;;;;;6.70;6.00;;;19.70;99.90;;;;;;2056230;28;20052;-70
2021/08/06 04:49:30;;;;;;;8.57;5.82;;;19.90;99.90;;;;;;2064471;28;20030;-70
2021/08/06 04:50:31;;;;;;;6.38;5.80;;;20.00;99.20;;;;;;2055355;28;20043;-68
2021/08/06 04:51:34;;;;;;;6.20;5.60;;;20.20;98.50;;;;;;2056895;28;20723;-68
2021/08/06 04:52:36;;;;;;;7.43;5.85;;;20.40;97.80;;;;;;2056339;28;20034;-71
2021/08/06 04:53:37;;;;;;;7.55;5.88;;;20.40;96.40;;;;;;2056390;28;20682;-72
2021/08/06 04:54:38;;;;;;;8.13;6.80;;;20.30;95.30;;;;;;2048332;28;20043;-71
2021/08/06 04:55:39;;;;;;;6.95;6.10;;;19.90;95.30;;;;;;2048133;28;20058;-72
2021/08/06 04:56:41;;;;;;;6.68;6.00;;;19.50;97.10;;;;;;2048580;28;20042;-70
2021/08/06 04:57:45;;;;;;;6.25;5.65;;;19.30;98.10;;;;;;2048605;28;20031;-70
2021/08/06 04:58:48;;;;;;;6.68;5.97;;;19.10;99.30;;;;;;2056589;28;20034;-69
2021/08/06 04:59:50;;;;;;;6.20;5.60;;;18.80;99.90;;;;;;2056046;28;20030;-70
2021/08/06 05:00:52;;;;;;;6.38;5.70;;;18.60;99.90;;;;;;2047929;28;20058;-69
2021/08/06 05:01:56;;;;;;;7.05;6.20;;;18.50;99.90;;;;;;2063937;28;20026;-69
2021/08/06 05:02:57;;;;;;;7.00;6.28;;;18.30;99.90;;;;;;2056280;28;20069;-69
2021/08/06 05:04:02;;;;;;;7.13;6.43;;;18.10;99.90;;;;;;2048570;28;20055;-69
2021/08/06 05:05:03;;;;;;;7.45;6.75;;;18.00;99.90;;;;;;2048230;28;20395;-68
2021/08/06 05:06:04;;;;;;;7.13;6.43;;;17.90;99.90;;;;;;2048332;28;20443;-69
2021/08/06 05:07:06;;;;;;;7.75;6.95;;;17.80;99.90;;;;;;2056313;28;20478;-69
2021/08/06 05:08:08;;;;;;;7.05;6.35;;;17.70;99.90;;;;;;2056169;28;20023;-69
2021/08/06 05:09:10;;;;;;;9.82;6.57;;;17.70;99.90;;;;;;2056237;28;20034;-70
2021/08/06 05:10:11;;;;;;;7.53;6.68;;;17.70;99.90;;;;;;2056233;28;20022;-68
2021/08/06 05:11:12;;;;;;;7.57;6.88;;;17.70;99.90;;;;;;2047416;28;20042;-68
2021/08/06 05:12:13;;;;;;;7.60;6.90;;;17.80;99.90;;;;;;2047904;28;20114;-69
2021/08/06 05:13:13;;;;;;;7.80;7.03;;;17.80;99.90;;;;;;2056124;28;20034;-69
2021/08/06 05:14:16;;;;;;;7.28;6.53;;;17.80;99.90;;;;;;2056215;28;20085;-67
2021/08/06 05:15:18;;;;;;;9.90;7.30;;;17.90;99.90;;;;;;2056048;28;20027;-67
2021/08/06 05:16:18;;;;;;;9.18;6.60;;;18.00;99.90;;;;;;2064322;28;20484;-68
2021/08/06 05:17:19;;;;;;;7.75;6.40;;;18.10;99.90;;;;;;2056158;28;20035;-68
2021/08/06 05:18:20;;;;;;;7.50;6.53;;;18.30;99.90;;;;;;2055862;28;20625;-68
2021/08/06 05:19:21;;;;;;;6.80;6.00;;;18.60;99.90;;;;;;2056020;28;20407;-71
2021/08/06 05:20:21;;;;;;;7.60;6.80;;;18.80;99.90;;;;;;2048314;28;20083;-70
2021/08/06 05:21:23;;;;;;;7.53;6.30;;;18.90;99.90;;;;;;2047340;28;20023;-67
2021/08/06 05:22:24;;;;;;;7.32;6.28;;;18.90;99.90;;;;;;2055985;28;20034;-67
2021/08/06 05:23:24;;;;;;;7.30;6.70;;;18.90;99.90;;;;;;2056146;28;20022;-66
2021/08/06 05:24:25;;;;;;;7.05;6.30;;;18.90;99.90;;;;;;2056246;28;20031;-68